sensor_id;sensor_type;location;lat;lon;timestamp;P1;durP1;ratioP1;P2;durP2;ratioP2
40254;SDS011;25973;52.368;4.940;2022-11-15T00:00:52;42.92;;;16.10;;
40254;SDS011;25973;52.368;4.940;2022-11-15T00:03:19;53.33;;;17.88;;
40254;SDS011;25973;52.368;4.940;2022-11-15T00:05:47;54.72;;;19.13;;
40254;SDS011;25973;52.368;4.940;2022-11-15T00:08:13;52.95;;;16.27;;
40254;SDS011;25973;52.368;4.940;2022-11-15T00:10:38;47.20;;;18.02;;
40254;SDS011;25973;52.368;4.940;2022-11-15T00:13:07;50.20;;;19.17;;
40254;SDS011;25973;52.368;4.940;2022-11-15T00:15:35;46.90;;;19.30;;
40254;SDS011;25973;52.368;4.940;2022-11-15T00:18:02;61.17;;;24.40;;
40254;SDS011;25973;52.368;4.940;2022-11-15T00:20:28;51.08;;;17.88;;
40254;SDS011;25973;52.368;4.940;2022-11-15T00:22:54;53.70;;;22.00;;
40254;SDS011;25973;52.368;4.940;2022-11-15T00:25:20;57.20;;;21.10;;
40254;SDS011;25973;52.368;4.940;2022-11-15T00:27:46;49.25;;;19.48;;
40254;SDS011;25973;52.368;4.940;2022-11-15T00:30:12;44.45;;;17.90;;
40254;SDS011;25973;52.368;4.940;2022-11-15T00:32:37;48.03;;;18.00;;
40254;SDS011;25973;52.368;4.940;2022-11-15T00:35:03;53.83;;;19.10;;
40254;SDS011;25973;52.368;4.940;2022-11-15T00:37:29;45.63;;;17.63;;
40254;SDS011;25973;52.368;4.940;2022-11-15T00:39:54;57.40;;;19.90;;
40254;SDS011;25973;52.368;4.940;2022-11-15T00:42:20;46.38;;;16.85;;
40254;SDS011;25973;52.368;4.940;2022-11-15T00:44:45;44.58;;;17.52;;
40254;SDS011;25973;52.368;4.940;2022-11-15T00:47:11;41.58;;;16.80;;
40254;SDS011;25973;52.368;4.940;2022-11-15T00:49:36;54.63;;;18.60;;
40254;SDS011;25973;52.368;4.940;2022-11-15T00:52:02;44.63;;;16.63;;
40254;SDS011;25973;52.368;4.940;2022-11-15T00:54:28;46.80;;;17.50;;
40254;SDS011;25973;52.368;4.940;2022-11-15T00:56:53;63.10;;;18.38;;
40254;SDS011;25973;52.368;4.940;2022-11-15T00:59:19;49.75;;;18.23;;
40254;SDS011;25973;52.368;4.940;2022-11-15T01:01:44;53.38;;;18.02;;
40254;SDS011;25973;52.368;4.940;2022-11-15T01:04:10;48.85;;;17.55;;
40254;SDS011;25973;52.368;4.940;2022-11-15T01:06:35;51.28;;;19.00;;
40254;SDS011;25973;52.368;4.940;2022-11-15T01:09:01;52.28;;;18.23;;
40254;SDS011;25973;52.368;4.940;2022-11-15T01:11:27;56.30;;;18.00;;
40254;SDS011;25973;52.368;4.940;2022-11-15T01:13:55;46.55;;;18.23;;
40254;SDS011;25973;52.368;4.940;2022-11-15T01:16:21;55.67;;;18.92;;
40254;SDS011;25973;52.368;4.940;2022-11-15T01:18:46;54.10;;;18.13;;
40254;SDS011;25973;52.368;4.940;2022-11-15T01:21:13;63.60;;;20.42;;
40254;SDS011;25973;52.368;4.940;2022-11-15T01:23:41;49.88;;;17.98;;
40254;SDS011;25973;52.368;4.940;2022-11-15T01:26:07;59.60;;;18.48;;
40254;SDS011;25973;52.368;4.940;2022-11-15T01:28:36;58.42;;;17.70;;
40254;SDS011;25973;52.368;4.940;2022-11-15T01:31:03;48.17;;;17.33;;
40254;SDS011;25973;52.368;4.940;2022-11-15T01:33:33;45.15;;;17.27;;
40254;SDS011;25973;52.368;4.940;2022-11-15T01:36:03;54.17;;;17.35;;
40254;SDS011;25973;52.368;4.940;2022-11-15T01:38:30;43.13;;;17.42;;
40254;SDS011;25973;52.368;4.940;2022-11-15T01:40:55;52.55;;;17.83;;
40254;SDS011;25973;52.368;4.940;2022-11-15T01:43:22;48.30;;;18.13;;
40254;SDS011;25973;52.368;4.940;2022-11-15T01:46:06;55.03;;;18.05;;
40254;SDS011;25973;52.368;4.940;2022-11-15T01:48:47;62.10;;;18.33;;
40254;SDS011;25973;52.368;4.940;2022-11-15T01:51:15;64.50;;;20.52;;
40254;SDS011;25973;52.368;4.940;2022-11-15T01:53:43;56.63;;;18.73;;
40254;SDS011;25973;52.368;4.940;2022-11-15T01:56:13;51.40;;;17.80;;
40254;SDS011;25973;52.368;4.940;2022-11-15T01:58:43;55.05;;;19.25;;
40254;SDS011;25973;52.368;4.940;2022-11-15T02:01:10;52.08;;;18.77;;
40254;SDS011;25973;52.368;4.940;2022-11-15T02:06:15;62.35;;;18.58;;
40254;SDS011;25973;52.368;4.940;2022-11-15T02:08:41;64.10;;;20.60;;
40254;SDS011;25973;52.368;4.940;2022-11-15T02:11:08;54.42;;;19.52;;
40254;SDS011;25973;52.368;4.940;2022-11-15T02:13:34;54.67;;;18.08;;
40254;SDS011;25973;52.368;4.940;2022-11-15T02:18:37;47.67;;;18.95;;
40254;SDS011;25973;52.368;4.940;2022-11-15T02:29:05;58.75;;;20.85;;
40254;SDS011;25973;52.368;4.940;2022-11-15T02:42:11;62.28;;;19.90;;
40254;SDS011;25973;52.368;4.940;2022-11-15T02:45:02;63.70;;;20.70;;
40254;SDS011;25973;52.368;4.940;2022-11-15T02:47:32;65.35;;;20.45;;
40254;SDS011;25973;52.368;4.940;2022-11-15T02:50:06;58.47;;;20.60;;
40254;SDS011;25973;52.368;4.940;2022-11-15T02:52:35;76.97;;;22.15;;
40254;SDS011;25973;52.368;4.940;2022-11-15T02:55:00;75.57;;;22.45;;
40254;SDS011;25973;52.368;4.940;2022-11-15T02:57:41;67.03;;;20.10;;
40254;SDS011;25973;52.368;4.940;2022-11-15T03:00:36;68.93;;;23.05;;
40254;SDS011;25973;52.368;4.940;2022-11-15T03:03:22;75.50;;;22.15;;
40254;SDS011;25973;52.368;4.940;2022-11-15T03:09:02;72.03;;;21.65;;
40254;SDS011;25973;52.368;4.940;2022-11-15T03:11:35;69.70;;;22.75;;
40254;SDS011;25973;52.368;4.940;2022-11-15T03:14:19;62.40;;;21.35;;
40254;SDS011;25973;52.368;4.940;2022-11-15T03:22:11;65.38;;;20.08;;
40254;SDS011;25973;52.368;4.940;2022-11-15T03:24:40;61.83;;;22.07;;
40254;SDS011;25973;52.368;4.940;2022-11-15T03:27:10;59.70;;;20.25;;
40254;SDS011;25973;52.368;4.940;2022-11-15T03:29:41;64.47;;;20.02;;
40254;SDS011;25973;52.368;4.940;2022-11-15T03:32:12;69.97;;;22.67;;
40254;SDS011;25973;52.368;4.940;2022-11-15T03:37:11;63.20;;;21.08;;
40254;SDS011;25973;52.368;4.940;2022-11-15T03:39:39;67.43;;;22.92;;
40254;SDS011;25973;52.368;4.940;2022-11-15T03:44:47;73.72;;;22.33;;
40254;SDS011;25973;52.368;4.940;2022-11-15T03:47:26;77.03;;;21.58;;
40254;SDS011;25973;52.368;4.940;2022-11-15T03:50:07;73.32;;;21.70;;
40254;SDS011;25973;52.368;4.940;2022-11-15T03:52:38;63.28;;;22.65;;
40254;SDS011;25973;52.368;4.940;2022-11-15T03:55:06;71.10;;;22.23;;
40254;SDS011;25973;52.368;4.940;2022-11-15T03:57:35;65.93;;;21.75;;
40254;SDS011;25973;52.368;4.940;2022-11-15T04:00:03;57.00;;;22.13;;
40254;SDS011;25973;52.368;4.940;2022-11-15T04:02:30;62.50;;;22.58;;
40254;SDS011;25973;52.368;4.940;2022-11-15T04:04:55;71.32;;;23.40;;
40254;SDS011;25973;52.368;4.940;2022-11-15T04:07:21;55.90;;;21.20;;
40254;SDS011;25973;52.368;4.940;2022-11-15T04:09:46;61.08;;;23.00;;
40254;SDS011;25973;52.368;4.940;2022-11-15T04:12:34;63.13;;;21.20;;
40254;SDS011;25973;52.368;4.940;2022-11-15T04:17:37;63.13;;;20.17;;
40254;SDS011;25973;52.368;4.940;2022-11-15T04:22:55;51.88;;;21.55;;
40254;SDS011;25973;52.368;4.940;2022-11-15T04:25:40;49.10;;;19.83;;
40254;SDS011;25973;52.368;4.940;2022-11-15T04:28:06;47.78;;;18.90;;
40254;SDS011;25973;52.368;4.940;2022-11-15T04:30:32;53.00;;;20.73;;
40254;SDS011;25973;52.368;4.940;2022-11-15T04:32:58;44.60;;;18.83;;
40254;SDS011;25973;52.368;4.940;2022-11-15T04:35:23;46.38;;;20.85;;
40254;SDS011;25973;52.368;4.940;2022-11-15T04:37:49;50.55;;;21.13;;
40254;SDS011;25973;52.368;4.940;2022-11-15T04:40:15;53.65;;;20.92;;
40254;SDS011;25973;52.368;4.940;2022-11-15T04:42:41;48.53;;;19.90;;
40254;SDS011;25973;52.368;4.940;2022-11-15T04:45:10;49.17;;;18.83;;
40254;SDS011;25973;52.368;4.940;2022-11-15T04:47:35;58.88;;;20.38;;
40254;SDS011;25973;52.368;4.940;2022-11-15T04:50:02;51.55;;;19.98;;
40254;SDS011;25973;52.368;4.940;2022-11-15T04:52:28;45.55;;;18.08;;
40254;SDS011;25973;52.368;4.940;2022-11-15T04:54:53;40.63;;;18.52;;
40254;SDS011;25973;52.368;4.940;2022-11-15T04:57:19;46.85;;;18.30;;
40254;SDS011;25973;52.368;4.940;2022-11-15T04:59:44;41.10;;;18.63;;
40254;SDS011;25973;52.368;4.940;2022-11-15T05:02:11;44.63;;;18.52;;
40254;SDS011;25973;52.368;4.940;2022-11-15T05:04:36;38.47;;;15.45;;
40254;SDS011;25973;52.368;4.940;2022-11-15T05:07:02;44.38;;;18.55;;
40254;SDS011;25973;52.368;4.940;2022-11-15T05:09:30;47.85;;;17.60;;
40254;SDS011;25973;52.368;4.940;2022-11-15T05:11:56;45.72;;;17.92;;
40254;SDS011;25973;52.368;4.940;2022-11-15T05:14:21;36.30;;;16.05;;
40254;SDS011;25973;52.368;4.940;2022-11-15T05:16:47;39.78;;;16.45;;
40254;SDS011;25973;52.368;4.940;2022-11-15T05:19:13;32.38;;;15.85;;
40254;SDS011;25973;52.368;4.940;2022-11-15T05:21:39;34.63;;;16.38;;
40254;SDS011;25973;52.368;4.940;2022-11-15T05:24:05;38.15;;;17.15;;
40254;SDS011;25973;52.368;4.940;2022-11-15T05:26:31;40.10;;;14.73;;
40254;SDS011;25973;52.368;4.940;2022-11-15T05:28:57;29.38;;;14.73;;
40254;SDS011;25973;52.368;4.940;2022-11-15T05:31:24;37.33;;;15.80;;
40254;SDS011;25973;52.368;4.940;2022-11-15T05:33:50;33.88;;;15.23;;
40254;SDS011;25973;52.368;4.940;2022-11-15T05:36:31;31.88;;;15.02;;
40254;SDS011;25973;52.368;4.940;2022-11-15T05:39:04;32.60;;;16.27;;
40254;SDS011;25973;52.368;4.940;2022-11-15T05:41:32;33.65;;;16.67;;
40254;SDS011;25973;52.368;4.940;2022-11-15T05:44:02;31.30;;;15.93;;
40254;SDS011;25973;52.368;4.940;2022-11-15T05:46:31;30.88;;;15.75;;
40254;SDS011;25973;52.368;4.940;2022-11-15T05:48:59;34.92;;;15.15;;
40254;SDS011;25973;52.368;4.940;2022-11-15T05:51:25;36.10;;;14.55;;
40254;SDS011;25973;52.368;4.940;2022-11-15T05:53:53;30.30;;;14.13;;
40254;SDS011;25973;52.368;4.940;2022-11-15T05:56:21;35.33;;;14.57;;
40254;SDS011;25973;52.368;4.940;2022-11-15T05:58:47;35.60;;;14.75;;
40254;SDS011;25973;52.368;4.940;2022-11-15T06:01:13;29.13;;;13.20;;
40254;SDS011;25973;52.368;4.940;2022-11-15T06:03:38;32.13;;;14.48;;
40254;SDS011;25973;52.368;4.940;2022-11-15T06:06:04;33.65;;;15.00;;
40254;SDS011;25973;52.368;4.940;2022-11-15T06:08:32;29.70;;;14.82;;
40254;SDS011;25973;52.368;4.940;2022-11-15T06:11:04;27.42;;;14.27;;
40254;SDS011;25973;52.368;4.940;2022-11-15T06:13:30;25.42;;;13.45;;
40254;SDS011;25973;52.368;4.940;2022-11-15T06:15:57;25.17;;;12.80;;
40254;SDS011;25973;52.368;4.940;2022-11-15T06:18:22;28.27;;;13.98;;
40254;SDS011;25973;52.368;4.940;2022-11-15T06:20:48;30.30;;;14.25;;
40254;SDS011;25973;52.368;4.940;2022-11-15T06:23:14;28.38;;;12.95;;
40254;SDS011;25973;52.368;4.940;2022-11-15T06:25:39;27.13;;;13.88;;
40254;SDS011;25973;52.368;4.940;2022-11-15T06:28:05;30.60;;;13.70;;
40254;SDS011;25973;52.368;4.940;2022-11-15T06:30:30;28.40;;;13.13;;
40254;SDS011;25973;52.368;4.940;2022-11-15T06:33:02;33.85;;;13.98;;
40254;SDS011;25973;52.368;4.940;2022-11-15T06:35:30;25.08;;;13.30;;
40254;SDS011;25973;52.368;4.940;2022-11-15T06:38:08;23.13;;;12.38;;
40254;SDS011;25973;52.368;4.940;2022-11-15T06:40:35;24.52;;;12.93;;
40254;SDS011;25973;52.368;4.940;2022-11-15T06:43:02;24.90;;;13.23;;
40254;SDS011;25973;52.368;4.940;2022-11-15T06:45:28;27.20;;;12.95;;
40254;SDS011;25973;52.368;4.940;2022-11-15T06:47:54;24.85;;;12.63;;
40254;SDS011;25973;52.368;4.940;2022-11-15T06:50:19;31.58;;;13.80;;
40254;SDS011;25973;52.368;4.940;2022-11-15T06:52:45;31.05;;;13.07;;
40254;SDS011;25973;52.368;4.940;2022-11-15T06:55:10;24.95;;;11.82;;
40254;SDS011;25973;52.368;4.940;2022-11-15T06:57:36;28.33;;;12.88;;
40254;SDS011;25973;52.368;4.940;2022-11-15T07:00:05;28.88;;;13.50;;
40254;SDS011;25973;52.368;4.940;2022-11-15T07:02:31;27.38;;;12.18;;
40254;SDS011;25973;52.368;4.940;2022-11-15T07:04:57;26.23;;;13.35;;
40254;SDS011;25973;52.368;4.940;2022-11-15T07:07:22;22.13;;;11.48;;
40254;SDS011;25973;52.368;4.940;2022-11-15T07:09:48;24.45;;;13.48;;
40254;SDS011;25973;52.368;4.940;2022-11-15T07:12:13;27.52;;;14.23;;
40254;SDS011;25973;52.368;4.940;2022-11-15T07:14:39;27.25;;;12.45;;
40254;SDS011;25973;52.368;4.940;2022-11-15T07:17:05;25.20;;;12.05;;
40254;SDS011;25973;52.368;4.940;2022-11-15T07:19:31;25.92;;;13.18;;
40254;SDS011;25973;52.368;4.940;2022-11-15T07:21:57;24.85;;;10.25;;
40254;SDS011;25973;52.368;4.940;2022-11-15T07:24:22;21.67;;;11.23;;
40254;SDS011;25973;52.368;4.940;2022-11-15T07:26:48;28.40;;;11.52;;
40254;SDS011;25973;52.368;4.940;2022-11-15T07:29:13;26.75;;;10.65;;
40254;SDS011;25973;52.368;4.940;2022-11-15T07:31:39;21.63;;;10.77;;
40254;SDS011;25973;52.368;4.940;2022-11-15T07:34:04;31.90;;;12.60;;
40254;SDS011;25973;52.368;4.940;2022-11-15T07:36:30;27.77;;;11.68;;
40254;SDS011;25973;52.368;4.940;2022-11-15T07:38:56;23.48;;;11.05;;
40254;SDS011;25973;52.368;4.940;2022-11-15T07:41:21;33.03;;;11.57;;
40254;SDS011;25973;52.368;4.940;2022-11-15T07:43:47;23.17;;;10.45;;
40254;SDS011;25973;52.368;4.940;2022-11-15T07:46:16;18.08;;;10.10;;
40254;SDS011;25973;52.368;4.940;2022-11-15T07:48:42;22.77;;;10.05;;
40254;SDS011;25973;52.368;4.940;2022-11-15T07:51:10;20.23;;;9.55;;
40254;SDS011;25973;52.368;4.940;2022-11-15T07:53:37;28.15;;;10.18;;
40254;SDS011;25973;52.368;4.940;2022-11-15T07:56:05;24.90;;;10.25;;
40254;SDS011;25973;52.368;4.940;2022-11-15T07:58:32;20.88;;;10.32;;
40254;SDS011;25973;52.368;4.940;2022-11-15T08:00:57;23.85;;;9.10;;
40254;SDS011;25973;52.368;4.940;2022-11-15T08:03:23;18.38;;;9.65;;
40254;SDS011;25973;52.368;4.940;2022-11-15T08:05:51;21.98;;;9.23;;
40254;SDS011;25973;52.368;4.940;2022-11-15T08:08:17;19.35;;;9.95;;
40254;SDS011;25973;52.368;4.940;2022-11-15T08:10:43;22.52;;;9.20;;
40254;SDS011;25973;52.368;4.940;2022-11-15T08:13:10;21.15;;;9.30;;
40254;SDS011;25973;52.368;4.940;2022-11-15T08:15:36;14.48;;;7.03;;
40254;SDS011;25973;52.368;4.940;2022-11-15T08:18:08;21.55;;;9.63;;
40254;SDS011;25973;52.368;4.940;2022-11-15T08:20:36;19.58;;;8.98;;
40254;SDS011;25973;52.368;4.940;2022-11-15T08:23:02;17.30;;;7.60;;
40254;SDS011;25973;52.368;4.940;2022-11-15T08:25:30;19.92;;;7.45;;
40254;SDS011;25973;52.368;4.940;2022-11-15T08:27:58;17.70;;;8.27;;
40254;SDS011;25973;52.368;4.940;2022-11-15T08:30:25;19.63;;;8.13;;
40254;SDS011;25973;52.368;4.940;2022-11-15T08:32:52;14.00;;;7.43;;
40254;SDS011;25973;52.368;4.940;2022-11-15T08:35:18;19.38;;;9.02;;
40254;SDS011;25973;52.368;4.940;2022-11-15T08:37:45;19.08;;;7.68;;
40254;SDS011;25973;52.368;4.940;2022-11-15T08:40:11;16.42;;;8.02;;
40254;SDS011;25973;52.368;4.940;2022-11-15T08:42:38;15.50;;;7.72;;
40254;SDS011;25973;52.368;4.940;2022-11-15T08:45:05;16.50;;;8.27;;
40254;SDS011;25973;52.368;4.940;2022-11-15T08:47:31;17.30;;;8.07;;
40254;SDS011;25973;52.368;4.940;2022-11-15T08:49:57;13.77;;;6.85;;
40254;SDS011;25973;52.368;4.940;2022-11-15T08:52:23;15.15;;;7.13;;
40254;SDS011;25973;52.368;4.940;2022-11-15T08:54:48;15.23;;;6.30;;
40254;SDS011;25973;52.368;4.940;2022-11-15T08:57:14;10.88;;;6.53;;
40254;SDS011;25973;52.368;4.940;2022-11-15T08:59:39;19.85;;;6.97;;
40254;SDS011;25973;52.368;4.940;2022-11-15T09:02:05;12.93;;;5.97;;
40254;SDS011;25973;52.368;4.940;2022-11-15T09:04:31;12.30;;;5.70;;
40254;SDS011;25973;52.368;4.940;2022-11-15T09:06:57;9.68;;;5.72;;
40254;SDS011;25973;52.368;4.940;2022-11-15T09:09:23;9.98;;;5.78;;
40254;SDS011;25973;52.368;4.940;2022-11-15T09:11:51;11.65;;;5.25;;
40254;SDS011;25973;52.368;4.940;2022-11-15T09:14:16;18.25;;;6.63;;
40254;SDS011;25973;52.368;4.940;2022-11-15T09:16:42;12.27;;;6.07;;
40254;SDS011;25973;52.368;4.940;2022-11-15T09:19:07;12.57;;;7.35;;
40254;SDS011;25973;52.368;4.940;2022-11-15T09:21:33;15.27;;;5.95;;
40254;SDS011;25973;52.368;4.940;2022-11-15T09:23:58;10.88;;;5.70;;
40254;SDS011;25973;52.368;4.940;2022-11-15T09:26:29;8.35;;;4.75;;
40254;SDS011;25973;52.368;4.940;2022-11-15T09:28:54;13.80;;;4.75;;
40254;SDS011;25973;52.368;4.940;2022-11-15T09:31:20;8.10;;;4.20;;
40254;SDS011;25973;52.368;4.940;2022-11-15T09:33:45;9.05;;;3.80;;
40254;SDS011;25973;52.368;4.940;2022-11-15T09:36:11;18.33;;;5.03;;
40254;SDS011;25973;52.368;4.940;2022-11-15T09:38:37;7.93;;;4.32;;
40254;SDS011;25973;52.368;4.940;2022-11-15T09:41:16;8.10;;;4.30;;
40254;SDS011;25973;52.368;4.940;2022-11-15T09:49:01;6.55;;;3.58;;
40254;SDS011;25973;52.368;4.940;2022-11-15T09:56:26;12.82;;;3.42;;
40254;SDS011;25973;52.368;4.940;2022-11-15T10:01:47;7.82;;;3.70;;
40254;SDS011;25973;52.368;4.940;2022-11-15T10:04:19;7.43;;;3.97;;
40254;SDS011;25973;52.368;4.940;2022-11-15T10:06:48;8.25;;;3.65;;
40254;SDS011;25973;52.368;4.940;2022-11-15T10:12:12;8.13;;;3.58;;
40254;SDS011;25973;52.368;4.940;2022-11-15T10:14:39;13.25;;;3.50;;
40254;SDS011;25973;52.368;4.940;2022-11-15T10:17:09;6.72;;;2.88;;
40254;SDS011;25973;52.368;4.940;2022-11-15T10:22:45;9.02;;;4.15;;
40254;SDS011;25973;52.368;4.940;2022-11-15T10:25:30;9.68;;;3.10;;
40254;SDS011;25973;52.368;4.940;2022-11-15T10:27:58;13.25;;;3.30;;
40254;SDS011;25973;52.368;4.940;2022-11-15T10:30:30;11.65;;;3.20;;
40254;SDS011;25973;52.368;4.940;2022-11-15T10:33:12;7.15;;;2.47;;
40254;SDS011;25973;52.368;4.940;2022-11-15T10:38:55;8.35;;;2.50;;
40254;SDS011;25973;52.368;4.940;2022-11-15T10:46:42;6.95;;;2.70;;
40254;SDS011;25973;52.368;4.940;2022-11-15T10:49:26;5.47;;;2.58;;
40254;SDS011;25973;52.368;4.940;2022-11-15T10:54:44;9.60;;;2.95;;
40254;SDS011;25973;52.368;4.940;2022-11-15T10:57:14;5.40;;;2.53;;
40254;SDS011;25973;52.368;4.940;2022-11-15T10:59:44;11.10;;;3.63;;
40254;SDS011;25973;52.368;4.940;2022-11-15T11:02:27;8.65;;;2.58;;
40254;SDS011;25973;52.368;4.940;2022-11-15T11:04:56;5.05;;;2.47;;
40254;SDS011;25973;52.368;4.940;2022-11-15T11:07:26;4.13;;;1.98;;
40254;SDS011;25973;52.368;4.940;2022-11-15T11:09:58;8.57;;;2.42;;
40254;SDS011;25973;52.368;4.940;2022-11-15T11:12:31;5.00;;;1.92;;
40254;SDS011;25973;52.368;4.940;2022-11-15T11:14:59;5.50;;;1.80;;
40254;SDS011;25973;52.368;4.940;2022-11-15T11:20:18;7.43;;;1.90;;
40254;SDS011;25973;52.368;4.940;2022-11-15T11:25:32;12.88;;;2.05;;
40254;SDS011;25973;52.368;4.940;2022-11-15T11:40:06;8.05;;;2.42;;
40254;SDS011;25973;52.368;4.940;2022-11-15T11:43:11;7.63;;;2.20;;
40254;SDS011;25973;52.368;4.940;2022-11-15T11:48:48;4.38;;;1.50;;
40254;SDS011;25973;52.368;4.940;2022-11-15T11:51:24;7.97;;;1.30;;
40254;SDS011;25973;52.368;4.940;2022-11-15T11:53:57;3.42;;;1.40;;
40254;SDS011;25973;52.368;4.940;2022-11-15T11:56:44;2.60;;;1.30;;
40254;SDS011;25973;52.368;4.940;2022-11-15T12:02:16;3.47;;;0.85;;
40254;SDS011;25973;52.368;4.940;2022-11-15T12:04:48;4.20;;;1.20;;
40254;SDS011;25973;52.368;4.940;2022-11-15T12:07:28;7.18;;;1.70;;
40254;SDS011;25973;52.368;4.940;2022-11-15T12:15:13;9.80;;;1.10;;
40254;SDS011;25973;52.368;4.940;2022-11-15T12:17:51;5.43;;;0.82;;
40254;SDS011;25973;52.368;4.940;2022-11-15T12:20:18;5.63;;;1.10;;
40254;SDS011;25973;52.368;4.940;2022-11-15T12:25:25;4.22;;;1.27;;
40254;SDS011;25973;52.368;4.940;2022-11-15T12:28:18;4.82;;;0.70;;
40254;SDS011;25973;52.368;4.940;2022-11-15T12:31:06;3.88;;;1.15;;
40254;SDS011;25973;52.368;4.940;2022-11-15T12:33:45;2.13;;;0.73;;
40254;SDS011;25973;52.368;4.940;2022-11-15T12:38:55;4.25;;;0.88;;
40254;SDS011;25973;52.368;4.940;2022-11-15T12:41:24;10.70;;;1.40;;
40254;SDS011;25973;52.368;4.940;2022-11-15T12:43:51;2.47;;;0.82;;
40254;SDS011;25973;52.368;4.940;2022-11-15T13:05:20;3.35;;;0.95;;
40254;SDS011;25973;52.368;4.940;2022-11-15T13:07:56;6.80;;;0.90;;
40254;SDS011;25973;52.368;4.940;2022-11-15T13:15:31;8.80;;;1.13;;
40254;SDS011;25973;52.368;4.940;2022-11-15T13:21:01;4.38;;;0.77;;
40254;SDS011;25973;52.368;4.940;2022-11-15T13:23:53;6.55;;;1.15;;
40254;SDS011;25973;52.368;4.940;2022-11-15T13:26:19;6.60;;;1.38;;
40254;SDS011;25973;52.368;4.940;2022-11-15T13:28:46;3.88;;;0.75;;
40254;SDS011;25973;52.368;4.940;2022-11-15T13:31:20;4.25;;;1.15;;
40254;SDS011;25973;52.368;4.940;2022-11-15T13:33:49;3.40;;;1.00;;
40254;SDS011;25973;52.368;4.940;2022-11-15T13:36:20;2.35;;;0.65;;
40254;SDS011;25973;52.368;4.940;2022-11-15T13:38:58;5.63;;;2.15;;
40254;SDS011;25973;52.368;4.940;2022-11-15T13:41:32;3.70;;;0.65;;
40254;SDS011;25973;52.368;4.940;2022-11-15T13:44:00;1.33;;;0.68;;
40254;SDS011;25973;52.368;4.940;2022-11-15T13:46:33;12.68;;;1.00;;
40254;SDS011;25973;52.368;4.940;2022-11-15T13:49:07;5.03;;;0.88;;
40254;SDS011;25973;52.368;4.940;2022-11-15T13:51:44;8.75;;;0.88;;
40254;SDS011;25973;52.368;4.940;2022-11-15T13:59:30;3.10;;;0.93;;
40254;SDS011;25973;52.368;4.940;2022-11-15T14:02:02;3.13;;;0.50;;
40254;SDS011;25973;52.368;4.940;2022-11-15T14:04:36;2.17;;;0.57;;
40254;SDS011;25973;52.368;4.940;2022-11-15T14:07:14;1.25;;;0.50;;
40254;SDS011;25973;52.368;4.940;2022-11-15T14:09:42;1.85;;;0.73;;
40254;SDS011;25973;52.368;4.940;2022-11-15T14:12:24;2.63;;;0.50;;
40254;SDS011;25973;52.368;4.940;2022-11-15T14:14:58;4.47;;;0.68;;
40254;SDS011;25973;52.368;4.940;2022-11-15T14:19:53;5.57;;;0.70;;
40254;SDS011;25973;52.368;4.940;2022-11-15T14:27:44;2.47;;;0.70;;
40254;SDS011;25973;52.368;4.940;2022-11-15T14:30:30;4.57;;;0.80;;
40254;SDS011;25973;52.368;4.940;2022-11-15T14:32:55;5.70;;;1.13;;
40254;SDS011;25973;52.368;4.940;2022-11-15T14:35:21;5.82;;;0.85;;
40254;SDS011;25973;52.368;4.940;2022-11-15T14:37:48;4.15;;;0.95;;
40254;SDS011;25973;52.368;4.940;2022-11-15T14:40:18;4.30;;;1.00;;
40254;SDS011;25973;52.368;4.940;2022-11-15T14:42:45;1.08;;;0.52;;
40254;SDS011;25973;52.368;4.940;2022-11-15T14:45:17;5.80;;;0.93;;
40254;SDS011;25973;52.368;4.940;2022-11-15T14:47:44;5.28;;;0.85;;
40254;SDS011;25973;52.368;4.940;2022-11-15T14:50:11;3.17;;;0.60;;
40254;SDS011;25973;52.368;4.940;2022-11-15T14:52:41;3.40;;;0.70;;
40254;SDS011;25973;52.368;4.940;2022-11-15T14:55:24;5.90;;;0.85;;
40254;SDS011;25973;52.368;4.940;2022-11-15T14:57:52;1.23;;;1.00;;
40254;SDS011;25973;52.368;4.940;2022-11-15T15:00:18;7.15;;;1.48;;
40254;SDS011;25973;52.368;4.940;2022-11-15T15:02:45;4.82;;;1.25;;
40254;SDS011;25973;52.368;4.940;2022-11-15T15:05:18;3.15;;;1.10;;
40254;SDS011;25973;52.368;4.940;2022-11-15T15:07:46;3.20;;;0.73;;
40254;SDS011;25973;52.368;4.940;2022-11-15T15:10:12;2.17;;;0.77;;
40254;SDS011;25973;52.368;4.940;2022-11-15T15:12:39;7.20;;;1.10;;
40254;SDS011;25973;52.368;4.940;2022-11-15T15:15:04;7.07;;;1.17;;
40254;SDS011;25973;52.368;4.940;2022-11-15T15:17:31;4.20;;;0.80;;
40254;SDS011;25973;52.368;4.940;2022-11-15T15:19:57;3.45;;;1.02;;
40254;SDS011;25973;52.368;4.940;2022-11-15T15:22:22;1.85;;;0.75;;
40254;SDS011;25973;52.368;4.940;2022-11-15T15:24:52;5.60;;;0.93;;
40254;SDS011;25973;52.368;4.940;2022-11-15T15:27:18;4.10;;;1.05;;
40254;SDS011;25973;52.368;4.940;2022-11-15T15:29:46;5.50;;;1.10;;
40254;SDS011;25973;52.368;4.940;2022-11-15T15:32:12;4.25;;;0.82;;
40254;SDS011;25973;52.368;4.940;2022-11-15T15:34:38;7.13;;;1.05;;
40254;SDS011;25973;52.368;4.940;2022-11-15T15:37:23;8.10;;;1.20;;
40254;SDS011;25973;52.368;4.940;2022-11-15T15:39:51;7.95;;;0.63;;
40254;SDS011;25973;52.368;4.940;2022-11-15T15:42:18;1.38;;;0.60;;
40254;SDS011;25973;52.368;4.940;2022-11-15T15:44:44;7.43;;;0.85;;
40254;SDS011;25973;52.368;4.940;2022-11-15T15:47:11;1.15;;;0.60;;
40254;SDS011;25973;52.368;4.940;2022-11-15T15:49:38;1.75;;;0.85;;
40254;SDS011;25973;52.368;4.940;2022-11-15T15:52:04;5.93;;;1.17;;
40254;SDS011;25973;52.368;4.940;2022-11-15T15:54:30;5.07;;;0.90;;
40254;SDS011;25973;52.368;4.940;2022-11-15T15:56:55;3.67;;;0.90;;
40254;SDS011;25973;52.368;4.940;2022-11-15T15:59:21;1.80;;;0.68;;
40254;SDS011;25973;52.368;4.940;2022-11-15T16:01:46;4.60;;;0.80;;
40254;SDS011;25973;52.368;4.940;2022-11-15T16:04:12;1.65;;;0.70;;
40254;SDS011;25973;52.368;4.940;2022-11-15T16:06:40;1.10;;;0.60;;
40254;SDS011;25973;52.368;4.940;2022-11-15T16:09:16;3.22;;;0.90;;
40254;SDS011;25973;52.368;4.940;2022-11-15T16:11:45;4.85;;;1.02;;
40254;SDS011;25973;52.368;4.940;2022-11-15T16:14:11;1.55;;;0.60;;
40254;SDS011;25973;52.368;4.940;2022-11-15T16:16:37;4.28;;;0.90;;
40254;SDS011;25973;52.368;4.940;2022-11-15T16:19:03;5.38;;;0.75;;
40254;SDS011;25973;52.368;4.940;2022-11-15T16:21:30;5.32;;;0.65;;
40254;SDS011;25973;52.368;4.940;2022-11-15T16:23:55;2.58;;;0.65;;
40254;SDS011;25973;52.368;4.940;2022-11-15T16:26:22;1.20;;;0.60;;
40254;SDS011;25973;52.368;4.940;2022-11-15T16:28:51;5.80;;;0.93;;
40254;SDS011;25973;52.368;4.940;2022-11-15T16:31:17;5.35;;;0.90;;
40254;SDS011;25973;52.368;4.940;2022-11-15T16:33:45;2.63;;;0.70;;
40254;SDS011;25973;52.368;4.940;2022-11-15T16:38:45;4.25;;;0.60;;
40254;SDS011;25973;52.368;4.940;2022-11-15T16:41:11;0.95;;;0.40;;
40254;SDS011;25973;52.368;4.940;2022-11-15T16:43:36;1.60;;;0.60;;
40254;SDS011;25973;52.368;4.940;2022-11-15T16:46:14;3.65;;;0.93;;
40254;SDS011;25973;52.368;4.940;2022-11-15T16:48:50;1.30;;;0.63;;
40254;SDS011;25973;52.368;4.940;2022-11-15T16:51:16;2.10;;;0.93;;
40254;SDS011;25973;52.368;4.940;2022-11-15T16:53:42;1.73;;;0.60;;
40254;SDS011;25973;52.368;4.940;2022-11-15T16:56:27;1.25;;;0.50;;
40254;SDS011;25973;52.368;4.940;2022-11-15T16:58:54;2.35;;;0.90;;
40254;SDS011;25973;52.368;4.940;2022-11-15T17:01:35;1.83;;;0.65;;
40254;SDS011;25973;52.368;4.940;2022-11-15T17:04:14;2.53;;;0.65;;
40254;SDS011;25973;52.368;4.940;2022-11-15T17:06:43;5.82;;;0.80;;
40254;SDS011;25973;52.368;4.940;2022-11-15T17:09:10;1.70;;;0.70;;
40254;SDS011;25973;52.368;4.940;2022-11-15T17:11:39;4.47;;;1.20;;
40254;SDS011;25973;52.368;4.940;2022-11-15T17:14:05;1.35;;;0.50;;